createdAt,value
2023-02-24T00:01:51.730Z,59.90
2023-02-24T00:04:20.182Z,59.87
2023-02-24T00:06:47.554Z,60.05
2023-02-24T00:09:19.491Z,60.15
2023-02-24T00:12:01.585Z,60.07
2023-02-24T00:14:30.767Z,60.66
2023-02-24T00:16:58.017Z,60.26
2023-02-24T00:19:28.416Z,60.38
2023-02-24T00:21:54.675Z,60.35
2023-02-24T00:24:21.791Z,60.37
2023-02-24T00:26:53.827Z,60.35
2023-02-24T00:29:26.350Z,60.37
2023-02-24T00:31:58.676Z,60.29
2023-02-24T00:34:32.928Z,60.47
2023-02-24T00:36:59.433Z,60.87
2023-02-24T00:39:44.384Z,60.83
2023-02-24T00:42:11.127Z,61.38
2023-02-24T00:44:43.889Z,61.22
2023-02-24T00:47:11.257Z,61.55
2023-02-24T00:49:41.460Z,61.72
2023-02-24T00:52:13.075Z,61.58
2023-02-24T00:54:40.647Z,61.54
2023-02-24T00:57:09.705Z,61.40
2023-02-24T00:59:36.337Z,61.20
2023-02-24T01:02:06.419Z,61.17
2023-02-24T01:04:33.198Z,61.07
2023-02-24T01:06:59.515Z,61.18
2023-02-24T01:09:27.766Z,60.88
2023-02-24T01:12:12.818Z,60.99
2023-02-24T01:14:39.337Z,60.92
2023-02-24T01:17:06.926Z,60.68
2023-02-24T01:19:34.426Z,60.74
2023-02-24T01:22:03.168Z,60.64
2023-02-24T01:24:35.113Z,60.29
2023-02-24T01:27:02.436Z,60.13
2023-02-24T01:29:28.566Z,60.04
2023-02-24T01:31:57.921Z,59.90
2023-02-24T01:34:26.199Z,59.67
2023-02-24T01:36:52.592Z,59.69
2023-02-24T01:39:19.296Z,59.86
2023-02-24T01:41:49.199Z,59.93
2023-02-24T01:44:19.039Z,60.05
2023-02-24T01:46:47.584Z,59.94
2023-02-24T01:49:21.850Z,60.09
2023-02-24T01:52:01.931Z,60.06
2023-02-24T01:54:34.785Z,60.17
2023-02-24T01:57:01.261Z,60.20
2023-02-24T01:59:29.547Z,60.02
2023-02-24T02:02:06.177Z,60.11
2023-02-24T02:04:44.219Z,60.01
2023-02-24T02:07:19.314Z,60.03
2023-02-24T02:09:47.751Z,60.00
2023-02-24T02:12:13.931Z,59.97
2023-02-24T02:14:51.630Z,59.67
2023-02-24T02:17:31.276Z,59.91
2023-02-24T02:20:15.142Z,59.75
2023-02-24T02:23:11.787Z,59.96
2023-02-24T02:26:01.990Z,59.93
2023-02-24T02:28:46.666Z,59.91
2023-02-24T02:31:21.914Z,59.99
2023-02-24T02:34:04.830Z,60.10
2023-02-24T02:36:38.107Z,60.13
2023-02-24T02:39:25.696Z,60.23
2023-02-24T02:42:01.692Z,60.23
2023-02-24T02:44:44.351Z,60.52
2023-02-24T02:47:22.556Z,60.48
2023-02-24T02:49:57.850Z,60.50
2023-02-24T02:52:31.304Z,60.50
2023-02-24T02:55:09.499Z,60.55
2023-02-24T02:57:39.540Z,60.55
2023-02-24T03:00:20.715Z,60.49
2023-02-24T03:02:51.489Z,60.39
2023-02-24T03:05:29.014Z,60.26
2023-02-24T03:08:00.164Z,60.18
2023-02-24T03:10:28.346Z,60.26
2023-02-24T03:12:59.031Z,60.11
2023-02-24T03:15:29.654Z,60.21
2023-02-24T03:18:09.595Z,60.10
2023-02-24T03:20:42.417Z,59.94
2023-02-24T03:23:17.591Z,59.78
2023-02-24T03:25:51.120Z,59.82
2023-02-24T03:28:24.256Z,59.83
2023-02-24T03:31:02.916Z,59.82
2023-02-24T03:33:39.695Z,59.66
2023-02-24T03:36:06.450Z,59.67
2023-02-24T03:38:37.997Z,59.71
2023-02-24T03:41:10.433Z,59.82
2023-02-24T03:43:44.334Z,59.93
2023-02-24T03:46:11.308Z,59.90
2023-02-24T03:48:44.168Z,60.29
2023-02-24T03:51:20.025Z,60.29
2023-02-24T03:54:00.793Z,60.49
2023-02-24T03:56:57.466Z,60.33
2023-02-24T03:59:24.564Z,60.27
2023-02-24T04:01:57.299Z,60.30
2023-02-24T04:04:33.317Z,60.26
2023-02-24T04:07:15.737Z,60.14
2023-02-24T04:09:46.548Z,59.98
2023-02-24T04:12:19.152Z,59.81
2023-02-24T04:14:56.448Z,59.62
2023-02-24T04:17:30.481Z,59.62
2023-02-24T04:20:01.464Z,59.47
2023-02-24T04:22:32.436Z,59.30
2023-02-24T04:25:01.118Z,59.17
2023-02-24T04:27:28.005Z,59.11
2023-02-24T04:30:01.201Z,58.81
2023-02-24T04:32:30.119Z,58.81
2023-02-24T04:35:08.914Z,58.32
2023-02-24T04:37:35.725Z,58.46
2023-02-24T04:40:09.997Z,58.80
2023-02-24T04:42:45.766Z,58.99
2023-02-24T04:45:22.711Z,58.90
2023-02-24T04:47:52.441Z,59.09
2023-02-24T04:50:23.157Z,59.01
2023-02-24T04:52:51.244Z,59.06
2023-02-24T04:55:20.446Z,59.03
2023-02-24T04:57:47.264Z,58.90
2023-02-24T05:00:20.641Z,59.02
2023-02-24T05:02:51.417Z,59.10
2023-02-24T05:05:24.967Z,59.24
2023-02-24T05:07:52.675Z,59.25
2023-02-24T05:10:19.146Z,59.38
2023-02-24T05:12:45.275Z,59.32
2023-02-24T05:15:11.832Z,59.33
2023-02-24T05:17:40.065Z,59.16
2023-02-24T05:20:27.027Z,59.07
2023-02-24T05:22:53.211Z,59.18
2023-02-24T05:25:20.458Z,59.08
2023-02-24T05:27:49.660Z,58.99
2023-02-24T05:30:15.788Z,59.11
2023-02-24T05:32:42.242Z,59.17
2023-02-24T05:35:10.130Z,59.20
2023-02-24T05:37:38.352Z,59.06
2023-02-24T05:40:05.351Z,58.97
2023-02-24T05:42:34.478Z,59.00
2023-02-24T05:45:01.468Z,59.21
2023-02-24T05:47:27.925Z,59.44
2023-02-24T05:49:56.293Z,59.54
2023-02-24T05:52:22.385Z,59.56
2023-02-24T05:54:49.166Z,59.52
2023-02-24T05:57:24.236Z,59.40
2023-02-24T05:59:50.769Z,59.33
2023-02-24T06:02:26.563Z,59.40
2023-02-24T06:04:53.327Z,59.36
2023-02-24T06:07:24.071Z,59.18
2023-02-24T06:09:56.559Z,59.18
2023-02-24T06:12:25.430Z,59.27
2023-02-24T06:14:52.424Z,59.32
2023-02-24T06:17:19.987Z,59.69
2023-02-24T06:19:50.169Z,59.75
2023-02-24T06:22:19.085Z,59.87
2023-02-24T06:24:48.509Z,60.07
2023-02-24T06:27:18.085Z,60.20
2023-02-24T06:29:49.359Z,60.02
2023-02-24T06:32:17.222Z,59.84
2023-02-24T06:34:43.417Z,59.68
2023-02-24T06:37:13.668Z,59.62
2023-02-24T06:39:40.496Z,59.66
2023-02-24T06:42:08.266Z,59.43
2023-02-24T06:44:36.440Z,59.48
2023-02-24T06:47:02.869Z,59.63
2023-02-24T06:49:29.368Z,59.49
2023-02-24T06:51:56.992Z,59.31
2023-02-24T06:54:32.120Z,59.16
2023-02-24T06:56:58.451Z,59.12
2023-02-24T06:59:27.993Z,59.48
2023-02-24T07:01:55.390Z,59.39
2023-02-24T07:04:25.693Z,59.57
2023-02-24T07:06:56.679Z,59.83
2023-02-24T07:09:25.700Z,59.93
2023-02-24T07:11:55.304Z,59.81
2023-02-24T07:14:24.389Z,59.74
2023-02-24T07:16:55.037Z,59.59
2023-02-24T07:19:25.008Z,59.40
2023-02-24T07:21:59.150Z,59.07
2023-02-24T07:24:35.498Z,59.18
2023-02-24T07:27:05.414Z,59.32
2023-02-24T07:29:34.996Z,59.38
2023-02-24T07:32:04.841Z,59.17
2023-02-24T07:34:33.071Z,58.92
2023-02-24T07:37:05.929Z,59.00
2023-02-24T07:39:31.995Z,59.09
2023-02-24T07:41:58.792Z,58.87
2023-02-24T07:44:25.041Z,58.83
2023-02-24T07:46:51.791Z,58.85
2023-02-24T07:49:25.292Z,58.74
2023-02-24T07:51:54.568Z,58.77
2023-02-24T07:54:22.798Z,58.71
2023-02-24T07:56:58.916Z,58.66
2023-02-24T07:59:30.336Z,58.39
2023-02-24T08:01:56.778Z,58.18
2023-02-24T08:04:29.333Z,58.08
2023-02-24T08:06:56.118Z,57.87
2023-02-24T08:09:46.645Z,57.66
2023-02-24T08:12:20.621Z,57.72
2023-02-24T08:14:50.162Z,57.79
2023-02-24T08:17:21.683Z,57.65
2023-02-24T08:20:00.367Z,57.32
2023-02-24T08:22:28.240Z,57.21
2023-02-24T08:25:05.250Z,56.96
2023-02-24T08:27:33.382Z,56.96
2023-02-24T08:30:03.237Z,57.09
2023-02-24T08:32:44.328Z,57.05
2023-02-24T08:35:16.279Z,57.04
2023-02-24T08:37:48.368Z,56.92
2023-02-24T08:40:33.183Z,56.82
2023-02-24T08:43:29.847Z,56.66
2023-02-24T08:45:56.032Z,56.49
2023-02-24T08:48:37.808Z,56.64
2023-02-24T08:51:42.977Z,56.57
2023-02-24T08:54:15.545Z,56.56
2023-02-24T08:56:48.322Z,56.46
2023-02-24T08:59:36.991Z,56.29
2023-02-24T09:02:18.033Z,55.77
2023-02-24T09:05:14.230Z,55.74
2023-02-24T09:07:41.629Z,56.00
2023-02-24T09:10:17.074Z,55.82
2023-02-24T09:12:44.086Z,55.77
2023-02-24T09:15:14.769Z,55.60
2023-02-24T09:17:45.912Z,55.24
2023-02-24T09:20:41.177Z,55.33
2023-02-24T09:23:08.046Z,54.29
2023-02-24T09:25:40.609Z,54.36
2023-02-24T09:28:18.579Z,54.20
2023-02-24T09:30:55.962Z,53.84
2023-02-24T09:33:26.531Z,52.95
2023-02-24T09:36:02.290Z,52.64
2023-02-24T09:38:48.601Z,52.35
2023-02-24T09:41:32.046Z,52.29
2023-02-24T09:44:06.728Z,51.04
2023-02-24T09:46:40.360Z,50.63
2023-02-24T09:49:17.455Z,50.46
2023-02-24T09:51:44.946Z,50.17
2023-02-24T09:54:15.281Z,50.04
2023-02-24T09:56:56.592Z,49.60
2023-02-24T09:59:35.639Z,49.80
2023-02-24T10:02:43.451Z,49.50
2023-02-24T10:05:18.842Z,49.39
2023-02-24T10:07:45.992Z,49.28
2023-02-24T10:10:27.795Z,49.04
2023-02-24T10:13:13.361Z,48.49
2023-02-24T10:15:58.695Z,49.07
2023-02-24T10:19:01.543Z,49.03
2023-02-24T10:21:49.060Z,48.80
2023-02-24T10:24:46.624Z,49.00
2023-02-24T10:28:03.373Z,49.19
2023-02-24T10:30:41.278Z,49.23
2023-02-24T10:33:13.157Z,49.39
2023-02-24T10:35:39.291Z,49.33
2023-02-24T10:38:05.617Z,49.08
2023-02-24T10:40:44.409Z,48.71
2023-02-24T10:43:17.183Z,49.04
2023-02-24T10:45:44.866Z,48.88
2023-02-24T10:48:41.469Z,48.68
2023-02-24T10:51:19.078Z,48.42
2023-02-24T10:54:09.195Z,48.19
2023-02-24T10:56:43.690Z,48.25
2023-02-24T10:59:21.245Z,48.08
2023-02-24T11:02:23.126Z,48.02
2023-02-24T11:04:59.684Z,47.93
2023-02-24T11:07:43.307Z,47.96
2023-02-24T11:10:25.682Z,48.05
2023-02-24T11:13:14.357Z,47.99
2023-02-24T11:16:09.805Z,47.91
2023-02-24T11:18:38.536Z,47.55
2023-02-24T11:21:10.520Z,47.39
2023-02-24T11:24:06.103Z,47.54
2023-02-24T11:26:39.826Z,47.67
2023-02-24T11:29:46.820Z,48.02
2023-02-24T11:33:05.910Z,48.08
2023-02-24T11:35:50.851Z,47.25
2023-02-24T11:38:27.402Z,47.43
2023-02-24T11:41:40.430Z,47.87
2023-02-24T11:44:19.158Z,48.15
2023-02-24T11:46:53.698Z,47.99
2023-02-24T11:49:25.734Z,47.84
2023-02-24T11:51:53.745Z,47.55
2023-02-24T11:54:22.685Z,47.67
2023-02-24T11:56:59.653Z,47.28
2023-02-24T11:59:48.148Z,47.09
2023-02-24T12:02:21.791Z,47.15
2023-02-24T12:05:02.353Z,46.96
2023-02-24T12:07:35.597Z,46.91
2023-02-24T12:10:24.345Z,46.89
2023-02-24T12:13:27.514Z,46.89
2023-02-24T12:15:54.094Z,46.74
2023-02-24T12:18:38.745Z,46.50
2023-02-24T12:21:39.217Z,46.64
2023-02-24T12:24:11.633Z,46.51
2023-02-24T12:27:25.427Z,46.51
2023-02-24T12:30:06.637Z,46.43
2023-02-24T12:32:51.400Z,46.38
2023-02-24T12:35:19.406Z,46.49
2023-02-24T12:38:09.365Z,46.52
2023-02-24T12:41:05.609Z,46.67
2023-02-24T12:43:50.291Z,46.50
2023-02-24T12:46:26.310Z,46.32
2023-02-24T12:49:29.147Z,46.52
2023-02-24T12:52:27.498Z,46.44
2023-02-24T12:55:23.435Z,46.95
2023-02-24T12:58:04.510Z,47.64
2023-02-24T13:00:59.927Z,48.06
2023-02-24T13:03:31.763Z,48.81
2023-02-24T13:06:12.650Z,49.14
2023-02-24T13:08:51.002Z,49.19
2023-02-24T13:11:39.232Z,49.45
2023-02-24T13:14:17.381Z,49.27
2023-02-24T13:16:43.892Z,49.46
2023-02-24T13:19:24.966Z,49.42
2023-02-24T13:22:06.098Z,49.63
2023-02-24T13:24:33.045Z,49.65
2023-02-24T13:27:23.943Z,49.67
2023-02-24T13:29:55.116Z,49.76
2023-02-24T13:32:28.332Z,50.00
2023-02-24T13:34:56.670Z,50.02
2023-02-24T13:37:27.804Z,50.16
2023-02-24T13:39:53.990Z,50.48
2023-02-24T13:42:30.234Z,50.56
2023-02-24T13:44:58.994Z,50.92
2023-02-24T13:48:01.577Z,51.07
2023-02-24T13:50:40.151Z,51.30
2023-02-24T13:53:28.837Z,51.33
2023-02-24T13:56:25.621Z,51.61
2023-02-24T13:59:11.937Z,51.55
2023-02-24T14:02:07.346Z,51.79
2023-02-24T14:04:38.728Z,52.14
2023-02-24T14:07:11.296Z,52.50
2023-02-24T14:09:42.537Z,52.60
2023-02-24T14:12:30.670Z,52.58
2023-02-24T14:14:58.196Z,52.83
2023-02-24T14:17:27.841Z,52.87
2023-02-24T14:20:15.052Z,52.67
2023-02-24T14:22:48.288Z,52.67
2023-02-24T14:25:15.388Z,52.61
2023-02-24T14:27:47.828Z,52.71
2023-02-24T14:30:36.752Z,52.71
2023-02-24T14:33:06.343Z,53.06
2023-02-24T14:35:44.845Z,53.21
2023-02-24T14:38:29.589Z,53.36
2023-02-24T14:40:55.856Z,53.58
2023-02-24T14:43:22.000Z,53.63
2023-02-24T14:45:50.461Z,53.72
2023-02-24T14:48:28.879Z,53.67
2023-02-24T14:51:11.325Z,53.70
2023-02-24T14:53:44.557Z,53.92
2023-02-24T14:56:12.440Z,54.02
2023-02-24T14:58:46.757Z,54.09
2023-02-24T15:01:27.416Z,54.01
2023-02-24T15:03:57.567Z,54.05
2023-02-24T15:06:31.267Z,54.39
2023-02-24T15:09:02.159Z,54.57
2023-02-24T15:11:30.398Z,54.53
2023-02-24T15:14:00.651Z,54.69
2023-02-24T15:16:36.671Z,54.72
2023-02-24T15:19:03.284Z,54.85
2023-02-24T15:21:38.665Z,54.66
2023-02-24T15:24:20.640Z,54.79
2023-02-24T15:27:01.534Z,54.86
2023-02-24T15:29:30.428Z,54.90
2023-02-24T15:31:59.009Z,54.83
2023-02-24T15:34:31.598Z,55.01
2023-02-24T15:37:02.439Z,55.04
2023-02-24T15:39:30.972Z,55.04
2023-02-24T15:42:22.653Z,55.09
2023-02-24T15:45:00.617Z,54.97
2023-02-24T15:47:40.180Z,55.13
2023-02-24T15:50:07.027Z,55.17
2023-02-24T15:52:33.274Z,55.37
2023-02-24T15:55:01.831Z,55.54
2023-02-24T15:57:32.245Z,55.42
2023-02-24T15:59:58.815Z,55.61
2023-02-24T16:02:25.389Z,55.70
2023-02-24T16:04:52.089Z,55.75
2023-02-24T16:07:31.793Z,55.71
2023-02-24T16:09:59.823Z,55.85
2023-02-24T16:12:33.178Z,56.04
2023-02-24T16:15:02.252Z,55.96
2023-02-24T16:17:28.654Z,56.15
2023-02-24T16:19:56.242Z,56.33
2023-02-24T16:22:23.582Z,56.27
2023-02-24T16:24:49.830Z,56.41
2023-02-24T16:27:18.069Z,56.40
2023-02-24T16:29:44.743Z,56.43
2023-02-24T16:32:12.237Z,56.37
2023-02-24T16:34:38.959Z,56.29
2023-02-24T16:37:17.517Z,56.43
2023-02-24T16:39:43.799Z,56.39
2023-02-24T16:42:10.637Z,56.53
2023-02-24T16:44:36.783Z,56.63
2023-02-24T16:47:05.570Z,56.68
2023-02-24T16:49:32.883Z,56.74
2023-02-24T16:51:59.172Z,56.87
2023-02-24T16:54:28.472Z,56.85
2023-02-24T16:56:55.971Z,56.99
2023-02-24T16:59:22.656Z,57.03
2023-02-24T17:01:48.961Z,57.11
2023-02-24T17:04:15.284Z,57.07
2023-02-24T17:06:41.629Z,57.09
2023-02-24T17:09:07.661Z,57.23
2023-02-24T17:11:33.803Z,57.13
2023-02-24T17:14:00.107Z,57.10
2023-02-24T17:16:26.473Z,57.20
2023-02-24T17:18:52.703Z,57.29
2023-02-24T17:21:19.109Z,57.36
2023-02-24T17:23:45.243Z,57.43
2023-02-24T17:26:14.818Z,57.02
2023-02-24T17:28:42.918Z,56.60
2023-02-24T17:31:09.366Z,56.26
2023-02-24T17:33:35.735Z,55.94
2023-02-24T17:36:02.248Z,55.50
2023-02-24T17:38:28.397Z,55.70
2023-02-24T17:40:56.910Z,55.80
2023-02-24T17:43:23.311Z,55.65
2023-02-24T17:45:51.132Z,55.67
2023-02-24T17:48:17.283Z,55.73
2023-02-24T17:50:44.957Z,55.66
2023-02-24T17:53:11.562Z,55.56
2023-02-24T17:55:37.834Z,55.40
2023-02-24T17:58:04.165Z,55.26
2023-02-24T18:00:30.309Z,55.24
2023-02-24T18:02:56.650Z,55.21
2023-02-24T18:05:23.021Z,55.16
2023-02-24T18:07:49.106Z,55.00
2023-02-24T18:10:15.377Z,55.11
2023-02-24T18:12:41.549Z,55.02
2023-02-24T18:15:09.342Z,54.83
2023-02-24T18:17:37.107Z,54.98
2023-02-24T18:20:07.690Z,55.16
2023-02-24T18:22:34.104Z,55.27
2023-02-24T18:25:00.383Z,55.18
2023-02-24T18:27:26.912Z,55.25
2023-02-24T18:29:53.847Z,55.25
2023-02-24T18:32:20.195Z,55.29
2023-02-24T18:34:46.476Z,55.32
2023-02-24T18:37:12.683Z,55.21
2023-02-24T18:39:40.238Z,55.06
2023-02-24T18:42:06.415Z,55.05
2023-02-24T18:44:32.948Z,55.30
2023-02-24T18:46:59.029Z,55.46
2023-02-24T18:49:25.163Z,55.57
2023-02-24T18:51:51.345Z,55.64
2023-02-24T18:54:17.506Z,55.61
2023-02-24T18:56:43.645Z,55.64
2023-02-24T18:59:09.767Z,55.68
2023-02-24T19:01:38.674Z,55.60
2023-02-24T19:04:07.615Z,55.53
2023-02-24T19:06:35.474Z,55.61
2023-02-24T19:09:09.295Z,55.62
2023-02-24T19:11:36.980Z,55.68
2023-02-24T19:14:03.861Z,55.78
2023-02-24T19:16:31.040Z,55.82
2023-02-24T19:18:59.391Z,55.86
2023-02-24T19:21:27.184Z,55.90
2023-02-24T19:23:53.685Z,55.95
2023-02-24T19:26:23.787Z,55.99
2023-02-24T19:28:50.764Z,56.14
2023-02-24T19:31:24.463Z,56.06
2023-02-24T19:33:55.270Z,56.08
2023-02-24T19:36:22.650Z,56.08
2023-02-24T19:38:49.792Z,56.15
2023-02-24T19:41:16.311Z,56.10
2023-02-24T19:43:43.471Z,56.26
2023-02-24T19:46:12.440Z,56.22
2023-02-24T19:48:40.069Z,56.32
2023-02-24T19:51:12.318Z,56.30
2023-02-24T19:53:38.712Z,56.36
2023-02-24T19:56:06.758Z,56.58
2023-02-24T19:58:35.403Z,56.69
2023-02-24T20:01:10.480Z,56.72
2023-02-24T20:03:38.253Z,56.68
2023-02-24T20:06:05.592Z,56.66
2023-02-24T20:08:34.647Z,56.64
2023-02-24T20:11:03.851Z,56.67
2023-02-24T20:13:30.843Z,56.73
2023-02-24T20:16:12.101Z,56.84
2023-02-24T20:18:39.890Z,56.71
2023-02-24T20:21:07.413Z,56.62
2023-02-24T20:23:34.160Z,56.86
2023-02-24T20:26:00.961Z,56.98
2023-02-24T20:28:28.585Z,57.22
2023-02-24T20:30:57.713Z,57.28
2023-02-24T20:33:25.176Z,57.43
2023-02-24T20:35:51.570Z,57.40
2023-02-24T20:38:17.693Z,57.52
2023-02-24T20:40:43.869Z,57.37
2023-02-24T20:43:09.996Z,57.37
2023-02-24T20:45:37.763Z,57.39
2023-02-24T20:48:04.301Z,57.27
2023-02-24T20:50:30.932Z,57.33
2023-02-24T20:52:57.087Z,57.39
2023-02-24T20:55:23.311Z,57.30
2023-02-24T20:57:49.544Z,57.35
2023-02-24T21:00:16.395Z,57.28
2023-02-24T21:02:43.051Z,57.27
2023-02-24T21:05:17.325Z,57.35
2023-02-24T21:07:43.525Z,57.31
2023-02-24T21:10:10.416Z,57.38
2023-02-24T21:12:36.720Z,57.36
2023-02-24T21:15:03.902Z,57.45
2023-02-24T21:17:30.743Z,57.45
2023-02-24T21:19:56.829Z,57.50
2023-02-24T21:22:23.105Z,57.60
2023-02-24T21:24:49.200Z,57.66
2023-02-24T21:27:15.260Z,57.76
2023-02-24T21:29:41.391Z,57.60
2023-02-24T21:32:07.709Z,57.73
2023-02-24T21:34:34.194Z,57.71
2023-02-24T21:37:01.007Z,57.87
2023-02-24T21:39:27.454Z,57.96
2023-02-24T21:41:53.630Z,58.11
2023-02-24T21:44:20.635Z,58.20
2023-02-24T21:46:46.753Z,58.23
2023-02-24T21:49:18.965Z,58.15
2023-02-24T21:51:48.346Z,58.23
2023-02-24T21:54:14.456Z,58.21
2023-02-24T21:56:41.136Z,58.16
2023-02-24T21:59:10.541Z,58.11
2023-02-24T22:01:45.118Z,58.03
2023-02-24T22:04:14.724Z,58.12
2023-02-24T22:06:44.424Z,58.03
2023-02-24T22:09:11.836Z,57.93
2023-02-24T22:11:41.951Z,57.99
2023-02-24T22:14:10.867Z,57.79
2023-02-24T22:16:37.272Z,57.83
2023-02-24T22:19:04.078Z,57.84
2023-02-24T22:21:30.851Z,57.95
2023-02-24T22:24:00.113Z,58.09
2023-02-24T22:26:28.261Z,58.08
2023-02-24T22:28:57.748Z,58.09
2023-02-24T22:31:27.302Z,58.22
2023-02-24T22:33:53.547Z,58.16
2023-02-24T22:36:30.947Z,58.34
2023-02-24T22:38:58.508Z,58.11
2023-02-24T22:41:27.097Z,58.05
2023-02-24T22:43:53.416Z,58.18
2023-02-24T22:46:24.644Z,58.57
2023-02-24T22:48:51.032Z,58.52
2023-02-24T22:51:18.008Z,58.65
2023-02-24T22:53:48.537Z,58.79
2023-02-24T22:56:19.377Z,58.90
2023-02-24T22:58:45.843Z,58.95
2023-02-24T23:01:16.275Z,59.19
2023-02-24T23:03:43.073Z,59.05
2023-02-24T23:06:14.879Z,58.98
2023-02-24T23:08:43.860Z,59.13
2023-02-24T23:11:13.639Z,58.83
2023-02-24T23:13:41.726Z,58.81
2023-02-24T23:16:11.345Z,59.11
2023-02-24T23:18:37.681Z,59.20
2023-02-24T23:21:07.428Z,59.36
2023-02-24T23:23:35.093Z,59.25
2023-02-24T23:26:01.428Z,59.40
2023-02-24T23:28:28.023Z,59.48
2023-02-24T23:30:55.188Z,59.60
2023-02-24T23:33:21.874Z,59.49
2023-02-24T23:35:48.565Z,59.47
2023-02-24T23:38:15.023Z,59.50
2023-02-24T23:40:49.921Z,59.52
2023-02-24T23:43:17.232Z,59.30
2023-02-24T23:45:43.704Z,59.54
2023-02-24T23:48:13.057Z,59.52
2023-02-24T23:50:40.830Z,59.54
2023-02-24T23:53:07.160Z,59.69
2023-02-24T23:55:35.896Z,59.75
2023-02-24T23:58:03.063Z,59.68
